sensor_id;sensor_type;location;lat;lon;timestamp;P1;durP1;ratioP1;P2;durP2;ratioP2
56911;SDS011;42800;53.928;27.662;2022-12-07T00:01:16;20.80;;;9.30;;
56911;SDS011;42800;53.928;27.662;2022-12-07T00:03:44;17.00;;;8.05;;
56911;SDS011;42800;53.928;27.662;2022-12-07T00:06:12;20.63;;;9.23;;
56911;SDS011;42800;53.928;27.662;2022-12-07T00:08:39;16.92;;;9.20;;
56911;SDS011;42800;53.928;27.662;2022-12-07T00:11:06;16.80;;;8.98;;
56911;SDS011;42800;53.928;27.662;2022-12-07T00:13:35;17.40;;;8.48;;
56911;SDS011;42800;53.928;27.662;2022-12-07T00:16:02;14.18;;;7.43;;
56911;SDS011;42800;53.928;27.662;2022-12-07T00:18:30;24.80;;;10.35;;
56911;SDS011;42800;53.928;27.662;2022-12-07T00:20:59;20.05;;;10.93;;
56911;SDS011;42800;53.928;27.662;2022-12-07T00:23:26;23.02;;;9.95;;
56911;SDS011;42800;53.928;27.662;2022-12-07T00:25:53;28.73;;;12.40;;
56911;SDS011;42800;53.928;27.662;2022-12-07T00:28:19;23.70;;;10.43;;
56911;SDS011;42800;53.928;27.662;2022-12-07T00:30:46;24.85;;;10.23;;
56911;SDS011;42800;53.928;27.662;2022-12-07T00:33:12;31.75;;;12.80;;
56911;SDS011;42800;53.928;27.662;2022-12-07T00:35:38;33.65;;;12.35;;
56911;SDS011;42800;53.928;27.662;2022-12-07T00:38:05;30.60;;;12.02;;
56911;SDS011;42800;53.928;27.662;2022-12-07T00:40:31;38.33;;;15.10;;
56911;SDS011;42800;53.928;27.662;2022-12-07T00:42:57;39.95;;;13.15;;
56911;SDS011;42800;53.928;27.662;2022-12-07T00:45:23;28.35;;;12.80;;
56911;SDS011;42800;53.928;27.662;2022-12-07T00:47:50;29.95;;;11.25;;
56911;SDS011;42800;53.928;27.662;2022-12-07T00:50:17;27.98;;;12.93;;
56911;SDS011;42800;53.928;27.662;2022-12-07T00:52:43;19.83;;;9.63;;
56911;SDS011;42800;53.928;27.662;2022-12-07T00:55:09;29.95;;;11.25;;
56911;SDS011;42800;53.928;27.662;2022-12-07T00:57:35;26.58;;;13.38;;
56911;SDS011;42800;53.928;27.662;2022-12-07T01:00:02;25.08;;;12.07;;
56911;SDS011;42800;53.928;27.662;2022-12-07T01:02:29;24.77;;;11.98;;
56911;SDS011;42800;53.928;27.662;2022-12-07T01:04:56;28.63;;;11.85;;
56911;SDS011;42800;53.928;27.662;2022-12-07T01:07:22;22.85;;;11.00;;
56911;SDS011;42800;53.928;27.662;2022-12-07T01:09:48;19.52;;;9.60;;
56911;SDS011;42800;53.928;27.662;2022-12-07T01:12:15;22.48;;;10.18;;
56911;SDS011;42800;53.928;27.662;2022-12-07T01:14:41;20.02;;;10.50;;
56911;SDS011;42800;53.928;27.662;2022-12-07T01:17:07;23.50;;;9.60;;
56911;SDS011;42800;53.928;27.662;2022-12-07T01:19:34;16.00;;;8.18;;
56911;SDS011;42800;53.928;27.662;2022-12-07T01:22:01;29.17;;;10.23;;
56911;SDS011;42800;53.928;27.662;2022-12-07T01:24:27;15.93;;;8.93;;
56911;SDS011;42800;53.928;27.662;2022-12-07T01:26:53;24.58;;;9.40;;
56911;SDS011;42800;53.928;27.662;2022-12-07T01:29:19;17.50;;;8.77;;
56911;SDS011;42800;53.928;27.662;2022-12-07T01:31:48;23.58;;;9.38;;
56911;SDS011;42800;53.928;27.662;2022-12-07T01:34:15;19.65;;;9.88;;
56911;SDS011;42800;53.928;27.662;2022-12-07T01:36:41;20.58;;;10.45;;
56911;SDS011;42800;53.928;27.662;2022-12-07T01:39:09;16.98;;;7.55;;
56911;SDS011;42800;53.928;27.662;2022-12-07T01:41:36;22.05;;;9.13;;
56911;SDS011;42800;53.928;27.662;2022-12-07T01:46:47;19.65;;;9.38;;
56911;SDS011;42800;53.928;27.662;2022-12-07T01:49:17;18.48;;;8.98;;
56911;SDS011;42800;53.928;27.662;2022-12-07T01:51:48;14.65;;;7.45;;
56911;SDS011;42800;53.928;27.662;2022-12-07T01:54:18;23.15;;;10.90;;
56911;SDS011;42800;53.928;27.662;2022-12-07T01:56:47;15.35;;;8.20;;
56911;SDS011;42800;53.928;27.662;2022-12-07T01:59:16;19.35;;;8.80;;
56911;SDS011;42800;53.928;27.662;2022-12-07T02:01:45;19.25;;;8.75;;
56911;SDS011;42800;53.928;27.662;2022-12-07T02:04:12;16.58;;;8.65;;
56911;SDS011;42800;53.928;27.662;2022-12-07T02:06:38;20.75;;;8.98;;
56911;SDS011;42800;53.928;27.662;2022-12-07T02:09:07;18.73;;;7.70;;
56911;SDS011;42800;53.928;27.662;2022-12-07T02:11:34;23.98;;;10.20;;
56911;SDS011;42800;53.928;27.662;2022-12-07T02:14:00;18.23;;;9.38;;
56911;SDS011;42800;53.928;27.662;2022-12-07T02:16:29;23.48;;;10.32;;
56911;SDS011;42800;53.928;27.662;2022-12-07T02:19:09;17.73;;;8.77;;
56911;SDS011;42800;53.928;27.662;2022-12-07T02:21:56;21.75;;;8.90;;
56911;SDS011;42800;53.928;27.662;2022-12-07T02:24:41;20.42;;;8.98;;
56911;SDS011;42800;53.928;27.662;2022-12-07T02:27:29;22.05;;;8.57;;
56911;SDS011;42800;53.928;27.662;2022-12-07T02:30:04;22.48;;;9.77;;
56911;SDS011;42800;53.928;27.662;2022-12-07T02:32:36;21.17;;;9.75;;
56911;SDS011;42800;53.928;27.662;2022-12-07T02:35:09;19.88;;;9.35;;
56911;SDS011;42800;53.928;27.662;2022-12-07T02:37:41;22.27;;;10.05;;
56911;SDS011;42800;53.928;27.662;2022-12-07T02:40:14;24.75;;;10.60;;
56911;SDS011;42800;53.928;27.662;2022-12-07T02:42:49;23.85;;;10.30;;
56911;SDS011;42800;53.928;27.662;2022-12-07T02:45:22;28.17;;;11.27;;
56911;SDS011;42800;53.928;27.662;2022-12-07T02:47:53;31.10;;;13.33;;
56911;SDS011;42800;53.928;27.662;2022-12-07T02:50:23;29.50;;;12.30;;
56911;SDS011;42800;53.928;27.662;2022-12-07T02:52:50;19.48;;;9.07;;
56911;SDS011;42800;53.928;27.662;2022-12-07T02:55:17;33.55;;;12.00;;
56911;SDS011;42800;53.928;27.662;2022-12-07T02:57:53;25.23;;;10.90;;
56911;SDS011;42800;53.928;27.662;2022-12-07T03:00:29;16.70;;;8.65;;
56911;SDS011;42800;53.928;27.662;2022-12-07T03:03:00;21.00;;;10.63;;
56911;SDS011;42800;53.928;27.662;2022-12-07T03:05:36;25.83;;;11.32;;
56911;SDS011;42800;53.928;27.662;2022-12-07T03:08:15;25.63;;;10.85;;
56911;SDS011;42800;53.928;27.662;2022-12-07T03:10:48;25.95;;;10.20;;
56911;SDS011;42800;53.928;27.662;2022-12-07T03:13:22;24.85;;;11.00;;
56911;SDS011;42800;53.928;27.662;2022-12-07T03:15:58;25.90;;;11.68;;
56911;SDS011;42800;53.928;27.662;2022-12-07T03:18:29;25.20;;;11.07;;
56911;SDS011;42800;53.928;27.662;2022-12-07T03:21:08;21.20;;;8.20;;
56911;SDS011;42800;53.928;27.662;2022-12-07T03:23:37;21.63;;;9.95;;
56911;SDS011;42800;53.928;27.662;2022-12-07T03:26:06;22.77;;;8.77;;
56911;SDS011;42800;53.928;27.662;2022-12-07T03:28:38;18.70;;;10.05;;
56911;SDS011;42800;53.928;27.662;2022-12-07T03:31:11;16.27;;;8.07;;
56911;SDS011;42800;53.928;27.662;2022-12-07T03:33:44;17.00;;;6.93;;
56911;SDS011;42800;53.928;27.662;2022-12-07T03:36:19;16.48;;;8.13;;
56911;SDS011;42800;53.928;27.662;2022-12-07T03:38:53;19.77;;;9.30;;
56911;SDS011;42800;53.928;27.662;2022-12-07T03:41:27;20.13;;;10.60;;
56911;SDS011;42800;53.928;27.662;2022-12-07T03:43:56;18.52;;;9.27;;
56911;SDS011;42800;53.928;27.662;2022-12-07T03:46:27;18.20;;;8.35;;
56911;SDS011;42800;53.928;27.662;2022-12-07T03:49:04;15.52;;;8.57;;
56911;SDS011;42800;53.928;27.662;2022-12-07T03:51:36;20.07;;;8.40;;
56911;SDS011;42800;53.928;27.662;2022-12-07T03:54:08;18.40;;;8.27;;
56911;SDS011;42800;53.928;27.662;2022-12-07T03:56:37;19.05;;;9.48;;
56911;SDS011;42800;53.928;27.662;2022-12-07T03:59:04;22.67;;;10.55;;
56911;SDS011;42800;53.928;27.662;2022-12-07T04:01:32;16.23;;;8.40;;
56911;SDS011;42800;53.928;27.662;2022-12-07T04:03:58;23.90;;;8.75;;
56911;SDS011;42800;53.928;27.662;2022-12-07T04:06:24;19.95;;;9.02;;
56911;SDS011;42800;53.928;27.662;2022-12-07T04:08:51;26.55;;;10.38;;
56911;SDS011;42800;53.928;27.662;2022-12-07T04:11:17;20.83;;;9.70;;
56911;SDS011;42800;53.928;27.662;2022-12-07T04:13:43;22.88;;;10.35;;
56911;SDS011;42800;53.928;27.662;2022-12-07T04:16:37;23.25;;;9.20;;
56911;SDS011;42800;53.928;27.662;2022-12-07T04:19:03;22.45;;;10.50;;
56911;SDS011;42800;53.928;27.662;2022-12-07T04:21:29;20.73;;;10.52;;
56911;SDS011;42800;53.928;27.662;2022-12-07T04:23:56;25.67;;;11.70;;
56911;SDS011;42800;53.928;27.662;2022-12-07T04:26:22;23.80;;;10.48;;
56911;SDS011;42800;53.928;27.662;2022-12-07T04:28:48;15.80;;;7.10;;
56911;SDS011;42800;53.928;27.662;2022-12-07T04:31:15;18.33;;;9.73;;
56911;SDS011;42800;53.928;27.662;2022-12-07T04:33:42;23.33;;;9.48;;
56911;SDS011;42800;53.928;27.662;2022-12-07T04:36:08;19.55;;;9.60;;
56911;SDS011;42800;53.928;27.662;2022-12-07T04:38:34;17.38;;;8.13;;
56911;SDS011;42800;53.928;27.662;2022-12-07T04:41:03;17.67;;;8.18;;
56911;SDS011;42800;53.928;27.662;2022-12-07T04:43:30;18.48;;;8.15;;
56911;SDS011;42800;53.928;27.662;2022-12-07T04:45:57;13.05;;;8.05;;
56911;SDS011;42800;53.928;27.662;2022-12-07T04:48:23;20.25;;;8.15;;
56911;SDS011;42800;53.928;27.662;2022-12-07T04:50:50;16.58;;;7.60;;
56911;SDS011;42800;53.928;27.662;2022-12-07T04:53:17;15.80;;;7.47;;
56911;SDS011;42800;53.928;27.662;2022-12-07T04:55:43;15.35;;;7.20;;
56911;SDS011;42800;53.928;27.662;2022-12-07T04:58:10;20.67;;;8.07;;
56911;SDS011;42800;53.928;27.662;2022-12-07T05:00:36;18.52;;;7.10;;
56911;SDS011;42800;53.928;27.662;2022-12-07T05:03:02;16.10;;;7.63;;
56911;SDS011;42800;53.928;27.662;2022-12-07T05:05:29;16.75;;;8.98;;
56911;SDS011;42800;53.928;27.662;2022-12-07T05:07:56;15.30;;;7.97;;
56911;SDS011;42800;53.928;27.662;2022-12-07T05:10:22;12.60;;;7.90;;
56911;SDS011;42800;53.928;27.662;2022-12-07T05:12:48;23.05;;;10.25;;
56911;SDS011;42800;53.928;27.662;2022-12-07T05:15:15;34.20;;;11.20;;
56911;SDS011;42800;53.928;27.662;2022-12-07T05:17:42;30.40;;;12.05;;
56911;SDS011;42800;53.928;27.662;2022-12-07T05:20:08;28.25;;;10.48;;
56911;SDS011;42800;53.928;27.662;2022-12-07T05:22:35;28.42;;;11.95;;
56911;SDS011;42800;53.928;27.662;2022-12-07T05:25:02;21.13;;;8.98;;
56911;SDS011;42800;53.928;27.662;2022-12-07T05:27:28;22.95;;;10.65;;
56911;SDS011;42800;53.928;27.662;2022-12-07T05:29:55;16.10;;;8.60;;
56911;SDS011;42800;53.928;27.662;2022-12-07T05:32:22;21.65;;;10.73;;
56911;SDS011;42800;53.928;27.662;2022-12-07T05:34:48;17.48;;;8.50;;
56911;SDS011;42800;53.928;27.662;2022-12-07T05:37:14;19.95;;;8.63;;
56911;SDS011;42800;53.928;27.662;2022-12-07T05:39:40;19.27;;;8.82;;
56911;SDS011;42800;53.928;27.662;2022-12-07T05:42:08;18.98;;;9.32;;
56911;SDS011;42800;53.928;27.662;2022-12-07T05:44:39;21.33;;;8.65;;
56911;SDS011;42800;53.928;27.662;2022-12-07T05:47:05;20.17;;;9.88;;
56911;SDS011;42800;53.928;27.662;2022-12-07T05:49:32;17.00;;;9.70;;
56911;SDS011;42800;53.928;27.662;2022-12-07T05:51:58;18.17;;;9.73;;
56911;SDS011;42800;53.928;27.662;2022-12-07T05:54:25;19.02;;;9.57;;
56911;SDS011;42800;53.928;27.662;2022-12-07T05:56:51;25.42;;;9.60;;
56911;SDS011;42800;53.928;27.662;2022-12-07T05:59:18;30.73;;;9.95;;
56911;SDS011;42800;53.928;27.662;2022-12-07T06:01:52;18.02;;;9.60;;
56911;SDS011;42800;53.928;27.662;2022-12-07T06:04:20;19.80;;;8.50;;
56911;SDS011;42800;53.928;27.662;2022-12-07T06:06:47;16.08;;;7.57;;
56911;SDS011;42800;53.928;27.662;2022-12-07T06:09:13;20.27;;;9.18;;
56911;SDS011;42800;53.928;27.662;2022-12-07T06:11:41;19.17;;;8.88;;
56911;SDS011;42800;53.928;27.662;2022-12-07T06:14:26;15.75;;;8.00;;
56911;SDS011;42800;53.928;27.662;2022-12-07T06:16:52;14.80;;;7.60;;
56911;SDS011;42800;53.928;27.662;2022-12-07T06:19:19;15.65;;;8.40;;
56911;SDS011;42800;53.928;27.662;2022-12-07T06:21:45;13.88;;;6.90;;
56911;SDS011;42800;53.928;27.662;2022-12-07T06:24:12;25.02;;;13.27;;
56911;SDS011;42800;53.928;27.662;2022-12-07T06:26:39;38.78;;;17.88;;
56911;SDS011;42800;53.928;27.662;2022-12-07T06:29:06;16.73;;;8.65;;
56911;SDS011;42800;53.928;27.662;2022-12-07T06:31:33;22.15;;;11.68;;
56911;SDS011;42800;53.928;27.662;2022-12-07T06:34:02;21.92;;;10.75;;
56911;SDS011;42800;53.928;27.662;2022-12-07T06:36:29;21.80;;;9.82;;
56911;SDS011;42800;53.928;27.662;2022-12-07T06:38:56;28.35;;;13.57;;
56911;SDS011;42800;53.928;27.662;2022-12-07T06:41:22;25.42;;;12.00;;
56911;SDS011;42800;53.928;27.662;2022-12-07T06:43:49;20.92;;;9.52;;
56911;SDS011;42800;53.928;27.662;2022-12-07T06:46:16;24.45;;;11.38;;
56911;SDS011;42800;53.928;27.662;2022-12-07T06:48:43;23.80;;;11.43;;
56911;SDS011;42800;53.928;27.662;2022-12-07T06:51:09;24.73;;;11.13;;
56911;SDS011;42800;53.928;27.662;2022-12-07T06:53:36;35.35;;;11.80;;
56911;SDS011;42800;53.928;27.662;2022-12-07T06:56:02;27.40;;;12.68;;
56911;SDS011;42800;53.928;27.662;2022-12-07T06:58:29;26.55;;;11.48;;
56911;SDS011;42800;53.928;27.662;2022-12-07T07:00:56;25.00;;;11.43;;
56911;SDS011;42800;53.928;27.662;2022-12-07T07:03:22;18.45;;;8.48;;
56911;SDS011;42800;53.928;27.662;2022-12-07T07:05:50;14.77;;;8.40;;
56911;SDS011;42800;53.928;27.662;2022-12-07T07:08:17;21.98;;;10.07;;
56911;SDS011;42800;53.928;27.662;2022-12-07T07:10:43;24.90;;;11.68;;
56911;SDS011;42800;53.928;27.662;2022-12-07T07:13:09;27.73;;;12.85;;
56911;SDS011;42800;53.928;27.662;2022-12-07T07:15:36;21.92;;;10.35;;
56911;SDS011;42800;53.928;27.662;2022-12-07T07:18:03;23.35;;;7.75;;
56911;SDS011;42800;53.928;27.662;2022-12-07T07:20:30;29.23;;;12.38;;
56911;SDS011;42800;53.928;27.662;2022-12-07T07:22:57;26.10;;;12.98;;
56911;SDS011;42800;53.928;27.662;2022-12-07T07:25:24;24.05;;;10.50;;
56911;SDS011;42800;53.928;27.662;2022-12-07T07:27:50;27.55;;;10.10;;
56911;SDS011;42800;53.928;27.662;2022-12-07T07:30:16;34.03;;;15.20;;
56911;SDS011;42800;53.928;27.662;2022-12-07T07:32:43;26.30;;;12.20;;
56911;SDS011;42800;53.928;27.662;2022-12-07T07:35:09;30.17;;;13.23;;
56911;SDS011;42800;53.928;27.662;2022-12-07T07:37:35;34.13;;;14.93;;
56911;SDS011;42800;53.928;27.662;2022-12-07T07:40:03;21.75;;;10.50;;
56911;SDS011;42800;53.928;27.662;2022-12-07T07:42:30;40.08;;;15.88;;
56911;SDS011;42800;53.928;27.662;2022-12-07T07:44:56;14.48;;;7.57;;
56911;SDS011;42800;53.928;27.662;2022-12-07T07:47:23;21.98;;;9.77;;
56911;SDS011;42800;53.928;27.662;2022-12-07T07:49:49;33.00;;;12.70;;
56911;SDS011;42800;53.928;27.662;2022-12-07T07:52:15;46.33;;;17.42;;
56911;SDS011;42800;53.928;27.662;2022-12-07T07:54:42;28.10;;;14.00;;
56911;SDS011;42800;53.928;27.662;2022-12-07T07:57:09;24.92;;;12.90;;
56911;SDS011;42800;53.928;27.662;2022-12-07T07:59:35;23.88;;;10.98;;
56911;SDS011;42800;53.928;27.662;2022-12-07T08:02:01;17.80;;;9.40;;
56911;SDS011;42800;53.928;27.662;2022-12-07T08:04:28;16.35;;;8.13;;
56911;SDS011;42800;53.928;27.662;2022-12-07T08:06:54;13.48;;;7.68;;
56911;SDS011;42800;53.928;27.662;2022-12-07T08:09:20;15.88;;;8.82;;
56911;SDS011;42800;53.928;27.662;2022-12-07T08:11:47;22.77;;;10.57;;
56911;SDS011;42800;53.928;27.662;2022-12-07T08:14:14;29.70;;;13.38;;
56911;SDS011;42800;53.928;27.662;2022-12-07T08:16:40;26.05;;;12.38;;
56911;SDS011;42800;53.928;27.662;2022-12-07T08:19:06;17.77;;;9.30;;
56911;SDS011;42800;53.928;27.662;2022-12-07T08:21:33;19.92;;;8.98;;
56911;SDS011;42800;53.928;27.662;2022-12-07T08:23:59;14.40;;;7.20;;
56911;SDS011;42800;53.928;27.662;2022-12-07T08:26:25;19.60;;;8.30;;
56911;SDS011;42800;53.928;27.662;2022-12-07T08:28:52;14.80;;;8.73;;
56911;SDS011;42800;53.928;27.662;2022-12-07T08:31:19;16.10;;;6.63;;
56911;SDS011;42800;53.928;27.662;2022-12-07T08:33:45;16.20;;;7.78;;
56911;SDS011;42800;53.928;27.662;2022-12-07T08:36:12;12.80;;;6.70;;
56911;SDS011;42800;53.928;27.662;2022-12-07T08:38:39;16.65;;;7.22;;
56911;SDS011;42800;53.928;27.662;2022-12-07T08:41:07;14.20;;;7.35;;
56911;SDS011;42800;53.928;27.662;2022-12-07T08:43:34;13.98;;;6.80;;
56911;SDS011;42800;53.928;27.662;2022-12-07T08:46:03;12.82;;;7.13;;
56911;SDS011;42800;53.928;27.662;2022-12-07T08:48:33;14.77;;;6.97;;
56911;SDS011;42800;53.928;27.662;2022-12-07T08:51:02;16.35;;;7.55;;
56911;SDS011;42800;53.928;27.662;2022-12-07T08:53:29;15.10;;;7.28;;
56911;SDS011;42800;53.928;27.662;2022-12-07T08:55:56;11.15;;;5.75;;
56911;SDS011;42800;53.928;27.662;2022-12-07T08:58:23;12.45;;;5.78;;
56911;SDS011;42800;53.928;27.662;2022-12-07T09:00:50;16.48;;;6.78;;
56911;SDS011;42800;53.928;27.662;2022-12-07T09:03:16;12.18;;;6.13;;
56911;SDS011;42800;53.928;27.662;2022-12-07T09:05:43;22.00;;;9.27;;
56911;SDS011;42800;53.928;27.662;2022-12-07T09:08:10;24.05;;;10.10;;
56911;SDS011;42800;53.928;27.662;2022-12-07T09:10:36;25.95;;;10.20;;
56911;SDS011;42800;53.928;27.662;2022-12-07T09:13:03;20.08;;;8.90;;
56911;SDS011;42800;53.928;27.662;2022-12-07T09:15:29;24.77;;;10.00;;
56911;SDS011;42800;53.928;27.662;2022-12-07T09:17:56;27.50;;;9.73;;
56911;SDS011;42800;53.928;27.662;2022-12-07T09:20:22;24.58;;;11.43;;
56911;SDS011;42800;53.928;27.662;2022-12-07T09:22:49;12.07;;;6.45;;
56911;SDS011;42800;53.928;27.662;2022-12-07T09:25:16;17.45;;;8.98;;
56911;SDS011;42800;53.928;27.662;2022-12-07T09:27:42;13.80;;;5.97;;
56911;SDS011;42800;53.928;27.662;2022-12-07T09:30:08;14.57;;;7.50;;
56911;SDS011;42800;53.928;27.662;2022-12-07T09:32:35;12.55;;;6.28;;
56911;SDS011;42800;53.928;27.662;2022-12-07T09:35:01;15.23;;;6.53;;
56911;SDS011;42800;53.928;27.662;2022-12-07T09:37:28;11.13;;;6.82;;
56911;SDS011;42800;53.928;27.662;2022-12-07T09:39:57;11.85;;;6.78;;
56911;SDS011;42800;53.928;27.662;2022-12-07T09:42:26;22.58;;;7.78;;
56911;SDS011;42800;53.928;27.662;2022-12-07T09:44:55;11.43;;;6.05;;
56911;SDS011;42800;53.928;27.662;2022-12-07T09:47:23;12.27;;;5.53;;
56911;SDS011;42800;53.928;27.662;2022-12-07T09:49:50;11.30;;;5.47;;
56911;SDS011;42800;53.928;27.662;2022-12-07T09:52:17;14.57;;;6.57;;
56911;SDS011;42800;53.928;27.662;2022-12-07T09:54:48;17.25;;;6.97;;
56911;SDS011;42800;53.928;27.662;2022-12-07T09:57:16;18.27;;;7.93;;
56911;SDS011;42800;53.928;27.662;2022-12-07T09:59:43;19.67;;;8.98;;
56911;SDS011;42800;53.928;27.662;2022-12-07T10:02:23;20.95;;;9.15;;
56911;SDS011;42800;53.928;27.662;2022-12-07T10:04:53;11.90;;;5.47;;
56911;SDS011;42800;53.928;27.662;2022-12-07T10:07:21;17.85;;;8.60;;
56911;SDS011;42800;53.928;27.662;2022-12-07T10:09:47;14.68;;;7.00;;
56911;SDS011;42800;53.928;27.662;2022-12-07T10:12:14;9.93;;;5.82;;
56911;SDS011;42800;53.928;27.662;2022-12-07T10:14:53;13.05;;;6.05;;
56911;SDS011;42800;53.928;27.662;2022-12-07T10:17:34;9.43;;;4.28;;
56911;SDS011;42800;53.928;27.662;2022-12-07T10:20:14;13.13;;;6.75;;
56911;SDS011;42800;53.928;27.662;2022-12-07T10:22:58;18.02;;;6.38;;
56911;SDS011;42800;53.928;27.662;2022-12-07T10:25:27;16.95;;;7.78;;
56911;SDS011;42800;53.928;27.662;2022-12-07T10:27:57;14.93;;;7.45;;
56911;SDS011;42800;53.928;27.662;2022-12-07T10:30:26;20.23;;;7.90;;
56911;SDS011;42800;53.928;27.662;2022-12-07T10:32:52;19.00;;;8.68;;
56911;SDS011;42800;53.928;27.662;2022-12-07T10:35:20;18.30;;;8.27;;
56911;SDS011;42800;53.928;27.662;2022-12-07T10:37:49;14.27;;;5.78;;
56911;SDS011;42800;53.928;27.662;2022-12-07T10:40:27;17.10;;;7.10;;
56911;SDS011;42800;53.928;27.662;2022-12-07T10:43:02;13.95;;;6.32;;
56911;SDS011;42800;53.928;27.662;2022-12-07T10:45:31;15.90;;;7.63;;
56911;SDS011;42800;53.928;27.662;2022-12-07T10:47:59;9.75;;;5.85;;
56911;SDS011;42800;53.928;27.662;2022-12-07T10:50:39;12.00;;;6.07;;
56911;SDS011;42800;53.928;27.662;2022-12-07T10:53:18;8.70;;;5.63;;
56911;SDS011;42800;53.928;27.662;2022-12-07T10:56:04;11.23;;;5.35;;
56911;SDS011;42800;53.928;27.662;2022-12-07T10:58:48;7.53;;;5.00;;
56911;SDS011;42800;53.928;27.662;2022-12-07T11:01:29;11.55;;;6.07;;
56911;SDS011;42800;53.928;27.662;2022-12-07T11:04:15;12.07;;;6.15;;
56911;SDS011;42800;53.928;27.662;2022-12-07T11:06:50;15.90;;;7.03;;
56911;SDS011;42800;53.928;27.662;2022-12-07T11:09:34;12.38;;;5.35;;
56911;SDS011;42800;53.928;27.662;2022-12-07T11:12:29;8.60;;;5.40;;
56911;SDS011;42800;53.928;27.662;2022-12-07T11:15:11;10.82;;;4.90;;
56911;SDS011;42800;53.928;27.662;2022-12-07T11:17:47;15.45;;;6.90;;
56911;SDS011;42800;53.928;27.662;2022-12-07T11:20:24;12.68;;;6.60;;
56911;SDS011;42800;53.928;27.662;2022-12-07T11:23:03;13.68;;;6.50;;
56911;SDS011;42800;53.928;27.662;2022-12-07T11:25:39;14.43;;;7.38;;
56911;SDS011;42800;53.928;27.662;2022-12-07T11:28:18;8.05;;;4.90;;
56911;SDS011;42800;53.928;27.662;2022-12-07T11:31:00;9.82;;;5.28;;
56911;SDS011;42800;53.928;27.662;2022-12-07T11:33:36;12.80;;;5.97;;
56911;SDS011;42800;53.928;27.662;2022-12-07T11:36:16;12.07;;;6.18;;
56911;SDS011;42800;53.928;27.662;2022-12-07T11:38:56;14.45;;;7.57;;
56911;SDS011;42800;53.928;27.662;2022-12-07T11:41:29;15.60;;;7.57;;
56911;SDS011;42800;53.928;27.662;2022-12-07T11:44:01;15.68;;;6.95;;
56911;SDS011;42800;53.928;27.662;2022-12-07T11:46:36;20.67;;;9.63;;
56911;SDS011;42800;53.928;27.662;2022-12-07T11:49:12;18.67;;;9.55;;
56911;SDS011;42800;53.928;27.662;2022-12-07T11:51:43;22.30;;;9.32;;
56911;SDS011;42800;53.928;27.662;2022-12-07T11:54:12;21.30;;;8.48;;
56911;SDS011;42800;53.928;27.662;2022-12-07T11:56:43;16.48;;;9.30;;
56911;SDS011;42800;53.928;27.662;2022-12-07T11:59:16;19.75;;;9.05;;
56911;SDS011;42800;53.928;27.662;2022-12-07T12:01:52;10.27;;;6.60;;
56911;SDS011;42800;53.928;27.662;2022-12-07T12:04:34;14.35;;;7.55;;
56911;SDS011;42800;53.928;27.662;2022-12-07T12:07:11;19.05;;;8.50;;
56911;SDS011;42800;53.928;27.662;2022-12-07T12:09:44;17.67;;;7.50;;
56911;SDS011;42800;53.928;27.662;2022-12-07T12:12:25;17.38;;;8.90;;
56911;SDS011;42800;53.928;27.662;2022-12-07T12:15:21;20.90;;;10.18;;
56911;SDS011;42800;53.928;27.662;2022-12-07T12:18:05;17.20;;;10.30;;
56911;SDS011;42800;53.928;27.662;2022-12-07T12:21:02;15.80;;;10.07;;
56911;SDS011;42800;53.928;27.662;2022-12-07T12:23:35;18.88;;;9.05;;
56911;SDS011;42800;53.928;27.662;2022-12-07T12:26:07;15.30;;;8.20;;
56911;SDS011;42800;53.928;27.662;2022-12-07T12:28:41;19.92;;;9.95;;
56911;SDS011;42800;53.928;27.662;2022-12-07T12:31:15;19.77;;;9.10;;
56911;SDS011;42800;53.928;27.662;2022-12-07T12:33:54;22.33;;;8.48;;
56911;SDS011;42800;53.928;27.662;2022-12-07T12:36:24;15.30;;;8.27;;
56911;SDS011;42800;53.928;27.662;2022-12-07T12:39:07;19.35;;;8.63;;
56911;SDS011;42800;53.928;27.662;2022-12-07T12:41:54;20.38;;;9.05;;
56911;SDS011;42800;53.928;27.662;2022-12-07T12:44:42;10.18;;;5.63;;
56911;SDS011;42800;53.928;27.662;2022-12-07T12:47:53;10.90;;;6.28;;
56911;SDS011;42800;53.928;27.662;2022-12-07T12:50:24;16.83;;;7.25;;
56911;SDS011;42800;53.928;27.662;2022-12-07T12:52:57;16.40;;;7.68;;
56911;SDS011;42800;53.928;27.662;2022-12-07T12:58:39;17.13;;;8.63;;
56911;SDS011;42800;53.928;27.662;2022-12-07T13:10:24;22.30;;;11.07;;
56911;SDS011;42800;53.928;27.662;2022-12-07T13:12:57;9.75;;;5.18;;
56911;SDS011;42800;53.928;27.662;2022-12-07T13:15:31;13.50;;;7.68;;
56911;SDS011;42800;53.928;27.662;2022-12-07T13:18:00;12.93;;;7.30;;
56911;SDS011;42800;53.928;27.662;2022-12-07T13:20:42;19.15;;;8.68;;
56911;SDS011;42800;53.928;27.662;2022-12-07T13:23:10;17.85;;;8.23;;
56911;SDS011;42800;53.928;27.662;2022-12-07T13:25:42;16.73;;;8.13;;
56911;SDS011;42800;53.928;27.662;2022-12-07T13:28:15;19.30;;;8.63;;
56911;SDS011;42800;53.928;27.662;2022-12-07T13:30:45;14.80;;;8.60;;
56911;SDS011;42800;53.928;27.662;2022-12-07T13:33:18;14.70;;;7.78;;
56911;SDS011;42800;53.928;27.662;2022-12-07T13:35:45;17.88;;;9.75;;
56911;SDS011;42800;53.928;27.662;2022-12-07T13:38:23;22.92;;;9.65;;
56911;SDS011;42800;53.928;27.662;2022-12-07T13:41:10;22.95;;;10.10;;
56911;SDS011;42800;53.928;27.662;2022-12-07T13:43:43;22.60;;;9.02;;
56911;SDS011;42800;53.928;27.662;2022-12-07T13:46:11;28.58;;;10.90;;
56911;SDS011;42800;53.928;27.662;2022-12-07T13:48:43;18.98;;;9.52;;
56911;SDS011;42800;53.928;27.662;2022-12-07T13:51:16;18.55;;;9.45;;
56911;SDS011;42800;53.928;27.662;2022-12-07T13:53:49;24.60;;;9.93;;
56911;SDS011;42800;53.928;27.662;2022-12-07T13:56:17;22.73;;;10.32;;
56911;SDS011;42800;53.928;27.662;2022-12-07T13:58:44;21.77;;;10.43;;
56911;SDS011;42800;53.928;27.662;2022-12-07T14:01:10;24.73;;;10.98;;
56911;SDS011;42800;53.928;27.662;2022-12-07T14:03:38;21.08;;;9.95;;
56911;SDS011;42800;53.928;27.662;2022-12-07T14:06:16;17.35;;;9.75;;
56911;SDS011;42800;53.928;27.662;2022-12-07T14:08:46;14.85;;;7.03;;
56911;SDS011;42800;53.928;27.662;2022-12-07T14:11:13;18.08;;;7.78;;
56911;SDS011;42800;53.928;27.662;2022-12-07T14:13:55;18.13;;;9.52;;
56911;SDS011;42800;53.928;27.662;2022-12-07T14:16:25;14.93;;;8.60;;
56911;SDS011;42800;53.928;27.662;2022-12-07T14:18:54;14.18;;;7.22;;
56911;SDS011;42800;53.928;27.662;2022-12-07T14:21:22;14.52;;;7.25;;
56911;SDS011;42800;53.928;27.662;2022-12-07T14:24:08;23.33;;;8.52;;
56911;SDS011;42800;53.928;27.662;2022-12-07T14:26:37;18.23;;;8.27;;
56911;SDS011;42800;53.928;27.662;2022-12-07T14:29:21;14.88;;;8.75;;
56911;SDS011;42800;53.928;27.662;2022-12-07T14:31:55;16.27;;;8.55;;
56911;SDS011;42800;53.928;27.662;2022-12-07T14:34:23;15.68;;;7.82;;
56911;SDS011;42800;53.928;27.662;2022-12-07T14:36:49;15.23;;;8.77;;
56911;SDS011;42800;53.928;27.662;2022-12-07T14:39:16;18.17;;;7.20;;
56911;SDS011;42800;53.928;27.662;2022-12-07T14:41:42;12.52;;;6.68;;
56911;SDS011;42800;53.928;27.662;2022-12-07T14:44:18;17.08;;;7.30;;
56911;SDS011;42800;53.928;27.662;2022-12-07T14:46:47;22.52;;;8.60;;
56911;SDS011;42800;53.928;27.662;2022-12-07T14:49:13;18.38;;;8.73;;
56911;SDS011;42800;53.928;27.662;2022-12-07T14:51:40;17.25;;;8.55;;